Time;durP1;ratioP1;P1;durP2;ratioP2;P2;SDS_P1;SDS_P2;PMS_P1;PMS_P2;Temp;Humidity;BMP_temperature;BMP_pressure;BME280_temperature;BME280_humidity;BME280_pressure;Samples;Min_cycle;Max_cycle;Signal;HPM_P1;HPM_P2
2024/03/17 00:02:11;;;;;;;7.50;1.50;;;;;;;4.39;81.72;101506.63;4900238;28;20034;-84
2024/03/17 00:04:43;;;;;;;8.65;1.10;;;6.10;99.90;;;4.20;83.33;101511.09;4910282;28;20050;-84
2024/03/17 00:07:14;;;;;;;27.10;3.17;;;6.00;99.90;;;4.18;85.56;101511.09;4914244;28;20128;-84
2024/03/17 00:10:03;;;;;;;7.32;1.30;;;5.80;99.90;;;3.95;87.03;101506.06;4927592;28;20037;-84
2024/03/17 00:12:29;;;;;;;19.20;2.20;;;5.70;99.90;;;3.94;88.24;101509.53;4927617;28;20049;-83
2024/03/17 00:14:55;;;;;;;17.38;2.20;;;5.70;99.90;;;3.91;89.07;101514.78;4920346;28;20031;-82
2024/03/17 00:17:24;;;;;;;7.78;1.55;;;5.60;99.90;;;3.86;89.99;101508.72;4903375;28;20035;-84
2024/03/17 00:20:08;;;;;;;20.48;2.17;;;5.60;99.90;;;3.80;91.53;101521.78;4935990;28;20670;-84
2024/03/17 00:22:39;;;;;;;24.90;2.53;;;5.50;99.90;;;3.75;92.87;101524.41;4898149;28;20040;-82
2024/03/17 00:25:08;;;;;;;35.17;3.25;;;5.50;99.90;;;3.84;93.90;101513.06;4892885;28;20030;-82
2024/03/17 00:27:44;;;;;;;9.23;1.23;;;5.50;99.90;;;3.74;94.39;101525.31;4903486;28;20031;-82
2024/03/17 00:30:53;;;;;;;19.83;2.92;;;5.50;99.90;;;3.74;95.00;101527.03;4884862;28;20069;-83
2024/03/17 00:33:03;;;;;;;7.22;1.30;;;5.50;99.90;;;3.74;95.30;101519.22;4919091;28;20576;-83
2024/03/17 00:35:30;;;;;;;12.23;2.10;;;5.50;99.90;;;3.74;95.52;101533.13;4936544;28;20470;-84
2024/03/17 00:37:56;;;;;;;8.45;1.85;;;5.40;99.90;;;3.67;95.94;101521.88;4938608;28;20034;-84
2024/03/17 00:40:33;;;;;;;16.40;1.40;;;5.30;99.90;;;3.59;95.87;101517.56;4916794;28;20085;-88
2024/03/17 00:42:59;;;;;;;12.98;1.83;;;;;;;3.61;95.71;101521.91;4929198;28;20120;-86
2024/03/17 00:45:34;;;;;;;10.70;1.63;;;5.30;99.90;;;3.58;94.46;101521.03;4931983;23;20052;-84
2024/03/17 00:48:05;;;;;;;12.98;1.70;;;;;;;3.58;93.26;101518.44;4924385;28;20080;-86
2024/03/17 00:51:00;;;;;;;8.80;1.50;;;5.30;99.90;;;3.57;92.91;101530.59;4939000;28;20033;-86
2024/03/17 00:53:34;;;;;;;12.68;1.98;;;5.30;99.90;;;3.58;93.39;101539.28;4933825;28;20038;-86
2024/03/17 00:56:01;;;;;;;10.38;1.40;;;5.30;99.90;;;3.63;93.40;101540.13;4915896;28;20030;-86
2024/03/17 00:58:27;;;;;;;18.55;3.13;;;5.30;99.90;;;3.62;93.67;101538.38;4919184;28;20038;-84
2024/03/17 01:01:02;;;;;;;20.10;2.22;;;;;;;3.65;94.06;101541.84;4869795;28;20044;-83
2024/03/17 01:03:28;;;;;;;9.77;1.55;;;5.30;99.90;;;3.64;93.96;101542.72;4884074;28;20040;-83
2024/03/17 01:05:54;;;;;;;7.80;1.60;;;5.30;99.90;;;3.55;93.19;101542.75;4894319;28;20781;-83
2024/03/17 01:08:20;;;;;;;9.32;1.10;;;5.20;99.90;;;3.49;92.16;101543.63;4883423;28;20121;-84
2024/03/17 01:10:52;;;;;;;7.82;1.08;;;5.20;99.90;;;3.42;91.54;101536.75;4882744;28;20046;-83
2024/03/17 01:13:18;;;;;;;2.25;0.73;;;5.10;99.90;;;3.28;90.43;101536.81;4928730;28;20042;-83
2024/03/17 01:15:44;;;;;;;7.60;0.70;;;5.00;99.90;;;3.13;88.55;101536.81;4880626;28;22452;-83
2024/03/17 01:18:22;;;;;;;1.55;0.50;;;4.90;99.90;;;2.98;87.61;101540.34;4887475;28;20043;-84
2024/03/17 01:20:48;;;;;;;1.17;0.30;;;;;;;2.94;86.89;101541.22;4887215;28;20054;-83
2024/03/17 01:23:14;;;;;;;1.27;0.40;;;;;;;2.84;86.60;101547.31;4888467;28;20127;-84
2024/03/17 01:25:49;;;;;;;2.33;0.60;;;4.60;99.90;;;2.74;87.34;101545.59;4907134;28;20378;-84
2024/03/17 01:28:15;;;;;;;3.42;0.52;;;4.50;99.90;;;2.71;87.40;101553.41;4898857;28;20034;-85
2024/03/17 01:30:41;;;;;;;0.40;0.10;;;;;;;2.61;87.85;101565.53;4906783;28;20045;-84
2024/03/17 01:33:09;;;;;;;1.33;0.43;;;;;;;2.58;88.96;101552.53;4897671;28;20121;-83
2024/03/17 01:35:44;;;;;;;1.55;0.45;;;4.30;99.90;;;2.52;89.08;101561.19;4909261;28;20043;-83
2024/03/17 01:38:10;;;;;;;3.50;0.77;;;4.30;99.90;;;2.46;89.87;101556.00;4895972;28;20405;-85
2024/03/17 01:40:46;;;;;;;2.38;0.30;;;4.30;99.90;;;2.47;90.00;101552.53;4895015;28;20050;-84
2024/03/17 01:43:11;;;;;;;1.80;0.57;;;4.20;99.90;;;2.45;90.33;101552.53;4896952;28;20039;-84
2024/03/17 01:45:40;;;;;;;2.33;0.30;;;4.20;99.90;;;2.40;89.88;101553.41;4923115;28;20053;-84
2024/03/17 01:48:26;;;;;;;;;;;;;;;;;;;;;
2024/03/17 01:50:55;;;;;;;;;;;4.20;99.90;;;2.39;89.23;101559.47;4888040;28;20208;-84
2024/03/17 01:53:25;;;;;;;3.67;0.40;;;4.20;99.90;;;2.39;88.83;101562.06;4871024;28;19922;-85
2024/03/17 01:56:00;;;;;;;1.80;0.40;;;4.20;99.90;;;2.34;88.53;101576.81;4829994;28;20126;-84
2024/03/17 01:58:27;;;;;;;4.28;0.57;;;4.10;99.90;;;2.36;88.32;101577.66;4897317;28;20042;-85
2024/03/17 02:01:04;;;;;;;1.55;0.40;;;4.10;99.90;;;2.38;87.88;101578.53;4902825;28;20062;-83
2024/03/17 02:03:30;;;;;;;3.40;0.50;;;4.20;99.90;;;2.38;88.35;101587.19;4873997;28;20085;-84
2024/03/17 02:06:23;;;;;;;1.63;0.40;;;4.20;99.90;;;2.42;88.63;101593.28;4889153;28;20110;-83
2024/03/17 02:09:03;;;;;;;5.65;0.88;;;4.10;99.90;;;2.41;88.79;101583.72;4886154;28;20043;-83
2024/03/17 02:11:42;;;;;;;1.75;0.40;;;4.10;99.90;;;2.34;89.67;101584.59;4869557;28;20042;-84
2024/03/17 02:14:08;;;;;;;4.18;0.77;;;4.10;99.90;;;2.30;89.67;101575.91;4893842;28;20054;-84
2024/03/17 02:16:34;;;;;;;4.18;0.45;;;4.10;99.90;;;2.31;89.61;101581.97;4880691;28;20497;-84
2024/03/17 02:19:10;;;;;;;4.20;0.85;;;4.00;99.90;;;2.24;89.13;101583.69;4867695;28;20043;-84
2024/03/17 02:21:37;;;;;;;;;;;4.00;99.90;;;2.15;87.85;101578.50;4874485;28;20066;-84
2024/03/17 02:24:03;;;;;;;0.88;0.25;;;4.00;99.90;;;2.12;87.55;101594.97;4867653;28;19965;-84
2024/03/17 02:26:51;;;;;;;1.27;0.22;;;3.90;99.90;;;2.10;87.27;101590.63;4863072;28;20038;-84
2024/03/17 02:29:19;;;;;;;1.08;0.30;;;3.90;99.90;;;2.05;86.94;101598.38;4867588;28;20126;-83
2024/03/17 02:31:46;;;;;;;3.25;0.40;;;3.80;99.90;;;2.03;86.54;101601.00;4837556;29;20044;-83
2024/03/17 02:34:12;;;;;;;2.03;0.70;;;3.80;99.90;;;2.07;85.31;101609.66;4852016;28;20047;-83
2024/03/17 02:36:46;;;;;;;1.50;0.32;;;3.80;99.90;;;2.07;85.68;101604.44;4881433;28;20035;-83
2024/03/17 02:39:33;;;;;;;3.00;0.70;;;3.80;99.90;;;2.10;85.48;101607.06;4910168;28;20031;-86
2024/03/17 02:42:10;;;;;;;2.63;0.45;;;3.90;99.90;;;2.15;85.16;101613.13;4904249;29;20082;-85
2024/03/17 02:44:46;;;;;;;3.25;0.43;;;3.90;99.90;;;2.18;85.06;101617.47;4883908;28;20031;-82
2024/03/17 02:47:14;;;;;;;2.63;0.20;;;3.90;99.90;;;2.16;85.21;101614.88;4833903;29;20082;-83
2024/03/17 02:49:49;;;;;;;2.35;0.40;;;3.90;99.90;;;2.19;85.67;101614.88;4834249;29;20040;-84
2024/03/17 02:52:15;;;;;;;2.28;0.45;;;3.90;99.90;;;2.23;85.55;101618.38;4830217;29;20117;-83
2024/03/17 02:54:41;;;;;;;2.63;0.40;;;4.00;99.90;;;2.27;85.56;101617.50;4819179;29;20072;-83
2024/03/17 02:57:07;;;;;;;4.78;0.63;;;4.00;99.90;;;2.23;85.83;101614.03;4838258;29;20044;-84
2024/03/17 02:59:43;;;;;;;10.32;1.48;;;4.00;99.90;;;2.24;85.51;101612.28;4793354;29;20044;-84
2024/03/17 03:02:11;;;;;;;4.30;0.52;;;4.00;99.90;;;2.27;84.64;101617.50;4823536;29;20087;-85
2024/03/17 03:04:46;;;;;;;5.47;1.00;;;4.00;99.90;;;2.29;84.65;101620.97;4855182;29;20421;-83
2024/03/17 03:07:12;;;;;;;7.63;0.65;;;;;;;2.32;84.33;101620.13;4869295;28;20046;-84
2024/03/17 03:09:40;;;;;;;3.72;0.50;;;4.10;99.90;;;2.33;84.04;101625.28;4932735;28;20128;-83
2024/03/17 03:12:15;;;;;;;13.23;1.80;;;4.10;99.90;;;2.34;83.58;101631.38;4938971;28;20045;-84
2024/03/17 03:14:43;;;;;;;1.50;0.40;;;4.10;99.90;;;2.31;84.12;101623.56;4898730;28;20067;-85
2024/03/17 03:17:19;;;;;;;5.07;1.23;;;;;;;2.32;84.20;101631.38;4903529;28;20265;-83
2024/03/17 03:19:45;;;;;;;2.28;0.50;;;4.10;99.90;;;2.32;84.55;101635.72;4917130;28;20038;-81
2024/03/17 03:22:22;;;;;;;2.65;0.47;;;4.10;99.90;;;2.31;85.12;101639.16;4911369;28;20041;-84
2024/03/17 03:24:50;;;;;;;6.78;0.43;;;4.10;99.90;;;2.33;85.41;101629.63;4916842;28;20062;-83
2024/03/17 03:27:15;;;;;;;2.92;0.57;;;4.10;99.90;;;2.33;85.46;101650.41;4928440;28;20037;-83
2024/03/17 03:30:03;;;;;;;4.85;0.90;;;;;;;2.34;85.77;101653.03;4906088;28;20042;-84
2024/03/17 03:32:29;;;;;;;5.43;0.77;;;;;;;2.33;86.67;101653.03;4942500;28;20049;-84
2024/03/17 03:34:55;;;;;;;4.97;1.00;;;4.10;99.90;;;2.33;86.23;101660.81;4902533;28;20038;-83
2024/03/17 03:37:23;;;;;;;6.10;0.90;;;4.10;99.90;;;2.32;86.54;101656.50;4855407;28;20100;-83
2024/03/17 03:39:59;;;;;;;5.53;0.70;;;4.10;99.90;;;2.37;86.94;101659.97;4880610;28;20114;-85
2024/03/17 03:42:25;;;;;;;5.55;1.20;;;4.10;99.90;;;2.36;87.46;101663.44;4896153;28;20035;-81
2024/03/17 03:44:51;;;;;;;9.50;1.10;;;4.10;99.90;;;2.36;87.90;101659.09;4910058;28;20114;-84
2024/03/17 03:47:22;;;;;;;4.78;0.68;;;4.10;99.90;;;2.32;88.19;101666.91;4905735;28;21439;-83
2024/03/17 03:49:48;;;;;;;4.22;0.90;;;4.10;99.90;;;2.29;87.70;101664.28;4918982;28;20043;-83
2024/03/17 03:52:14;;;;;;;3.22;0.85;;;4.00;99.90;;;2.24;87.61;101661.66;4918549;28;20036;-84
2024/03/17 03:54:40;;;;;;;4.68;0.70;;;4.00;99.90;;;2.18;87.13;101659.03;4892475;28;20043;-84
2024/03/17 03:57:06;;;;;;;2.22;0.55;;;;;;;2.14;86.88;101668.56;4909879;28;20047;-83
2024/03/17 03:59:32;;;;;;;2.08;0.60;;;3.90;99.90;;;2.10;85.86;101669.44;4900318;28;20737;-83
2024/03/17 04:02:07;;;;;;;7.80;0.65;;;3.90;99.90;;;2.09;85.25;101664.22;4897280;28;20150;-83
2024/03/17 04:04:33;;;;;;;15.60;1.30;;;;;;;2.08;85.17;101667.69;4876293;28;20039;-84
2024/03/17 04:07:08;;;;;;;5.97;0.70;;;3.90;99.90;;;2.05;85.54;101668.53;4894808;28;20070;-84
2024/03/17 04:09:33;;;;;;;6.88;1.52;;;3.80;99.90;;;2.04;85.36;101669.41;4889574;28;20042;-82
2024/03/17 04:11:59;;;;;;;2.58;0.70;;;3.80;99.90;;;2.02;85.44;101660.72;4902824;28;20034;-84
2024/03/17 04:14:25;;;;;;;2.65;0.60;;;3.80;99.90;;;2.02;85.92;101678.91;4909569;28;20030;-83
2024/03/17 04:17:07;;;;;;;2.33;0.80;;;3.70;99.90;;;1.97;85.41;101675.44;4906232;28;20065;-84
2024/03/17 04:19:38;;;;;;;5.05;0.55;;;3.80;99.90;;;1.97;85.23;101667.66;4876811;28;20090;-84
2024/03/17 04:22:04;;;;;;;6.82;1.13;;;;;;;1.97;85.10;101676.31;4888807;28;20072;-83
2024/03/17 04:24:33;;;;;;;9.20;1.00;;;3.70;99.90;;;1.99;85.39;101689.31;4896592;28;20035;-84
2024/03/17 04:26:59;;;;;;;3.35;0.80;;;3.70;99.90;;;1.97;84.87;101686.69;4926849;28;20043;-84
2024/03/17 04:29:32;;;;;;;6.18;0.90;;;3.80;99.90;;;2.00;85.47;101697.09;4919060;28;20097;-83
2024/03/17 04:31:58;;;;;;;4.18;0.85;;;3.70;99.90;;;1.93;84.90;101682.34;4890512;28;20035;-83
2024/03/17 04:34:23;;;;;;;1.15;0.50;;;3.70;99.90;;;1.87;84.32;101705.69;4911043;28;20049;-83
2024/03/17 04:36:50;;;;;;;0.65;0.28;;;3.60;99.90;;;1.84;84.09;101703.94;4904793;28;20038;-84
2024/03/17 04:39:15;;;;;;;4.10;0.52;;;3.60;99.90;;;1.82;83.73;101708.28;4915108;28;20061;-82
2024/03/17 04:42:06;;;;;;;3.30;0.68;;;3.60;99.90;;;1.73;82.47;101692.66;4941064;28;24373;-84
2024/03/17 04:44:33;;;;;;;1.98;0.35;;;;;;;1.77;82.51;101715.19;4891231;28;20532;-84
2024/03/17 04:46:58;;;;;;;8.27;0.63;;;3.60;99.90;;;1.79;82.36;101723.84;4886980;28;20098;-82
2024/03/17 04:49:24;;;;;;;5.18;0.68;;;3.60;99.90;;;1.79;82.46;101726.44;4895746;28;20492;-83
2024/03/17 04:51:55;;;;;;;1.40;0.52;;;3.50;99.90;;;1.73;82.15;101715.13;4925032;28;20457;-84
2024/03/17 04:54:23;;;;;;;2.90;0.70;;;3.50;99.90;;;1.75;81.68;101721.19;4913695;28;20053;-84
2024/03/17 04:56:52;;;;;;;1.95;0.20;;;3.50;99.90;;;1.77;81.81;101746.34;4857596;28;20107;-83
2024/03/17 04:59:27;;;;;;;5.30;0.65;;;3.60;99.90;;;1.80;82.36;101735.09;4915448;28;20042;-82
2024/03/17 05:01:54;;;;;;;3.38;0.32;;;3.50;99.90;;;1.76;82.41;101747.19;4916685;28;20038;-83
2024/03/17 05:04:31;;;;;;;7.35;0.90;;;3.60;99.90;;;1.75;82.88;101740.28;4899270;28;20465;-84
2024/03/17 05:06:57;;;;;;;6.63;0.88;;;3.60;99.90;;;1.79;83.36;101749.81;4919729;28;20121;-82
2024/03/17 05:09:23;;;;;;;4.40;0.60;;;3.50;99.90;;;1.78;83.22;101753.25;4881365;28;20098;-84
2024/03/17 05:11:59;;;;;;;6.65;0.90;;;3.60;99.90;;;1.84;83.62;101755.91;4905298;28;20098;-83
2024/03/17 05:14:26;;;;;;;4.22;0.82;;;3.60;99.90;;;1.90;83.25;101752.47;4889294;28;20050;-82
2024/03/17 05:16:52;;;;;;;5.68;1.33;;;3.60;99.90;;;1.87;83.02;101761.97;4885213;28;20090;-83
2024/03/17 05:19:26;;;;;;;7.78;0.50;;;3.60;99.90;;;1.89;82.48;101757.66;4908729;28;20089;-83
2024/03/17 05:21:54;;;;;;;3.58;0.38;;;3.60;99.90;;;1.92;82.89;101765.44;4921915;28;20538;-83
2024/03/17 05:24:20;;;;;;;2.13;0.40;;;3.70;99.90;;;1.91;82.60;101764.59;4912557;28;20042;-83
2024/03/17 05:26:50;;;;;;;6.43;0.85;;;3.70;99.90;;;1.93;82.17;101775.00;4887811;28;20061;-82
2024/03/17 05:29:16;;;;;;;2.67;0.60;;;3.60;99.90;;;1.84;82.25;101762.81;4914412;28;20037;-83
2024/03/17 05:31:43;;;;;;;2.90;0.70;;;3.60;99.90;;;1.87;81.49;101781.00;4897812;28;20115;-83
2024/03/17 05:34:10;;;;;;;2.58;0.80;;;3.70;99.90;;;1.90;82.06;101780.16;4893907;28;20902;-82
2024/03/17 05:36:42;;;;;;;4.30;0.60;;;3.70;99.90;;;1.90;82.38;101785.34;4945586;28;20046;-83
2024/03/17 05:39:11;;;;;;;1.55;0.40;;;3.60;99.90;;;1.84;81.73;101794.00;4921866;28;20510;-83
2024/03/17 05:41:36;;;;;;;3.40;0.45;;;3.60;99.90;;;1.81;81.52;101791.34;4923059;28;20128;-83
2024/03/17 05:44:03;;;;;;;1.92;0.40;;;3.60;99.90;;;1.81;81.88;101789.66;4896995;28;20120;-83
2024/03/17 05:46:35;;;;;;;0.65;0.30;;;3.60;99.90;;;1.83;81.77;101792.22;4878179;28;20116;-83
2024/03/17 05:49:03;;;;;;;2.72;0.30;;;3.60;99.90;;;1.79;81.41;101793.06;4916404;28;20814;-83
2024/03/17 05:51:32;;;;;;;2.75;0.30;;;3.60;99.90;;;1.75;81.65;101802.59;4882598;28;20402;-84
2024/03/17 05:54:07;;;;;;;3.85;0.35;;;6.00;99.90;;;1.78;81.20;101802.59;4892645;28;20518;-83
2024/03/17 05:56:35;;;;;;;0.80;0.25;;;3.60;99.90;;;1.79;81.49;101804.34;4870797;28;20096;-84
2024/03/17 05:59:10;;;;;;;3.38;0.40;;;3.60;99.90;;;1.79;81.12;101812.16;4894280;28;20035;-84
2024/03/17 06:01:36;;;;;;;1.20;0.40;;;3.60;99.90;;;1.83;81.40;101815.59;4895842;28;20378;-81
2024/03/17 06:04:04;;;;;;;2.05;0.50;;;;;;;1.87;81.11;101822.56;4912163;28;20043;-83
2024/03/17 06:06:39;;;;;;;0.73;0.40;;;;;;;1.83;80.55;101828.59;4919341;28;20100;-84
2024/03/17 06:09:08;;;;;;;7.10;1.05;;;3.60;99.90;;;1.87;80.72;101826.91;4927314;28;20042;-83
2024/03/17 06:11:43;;;;;;;1.52;0.28;;;3.70;99.90;;;1.88;80.78;101820.81;4897234;28;20109;-84
2024/03/17 06:14:12;;;;;;;4.93;0.50;;;3.60;99.90;;;1.90;80.23;101830.41;4905518;28;20077;-84
2024/03/17 06:16:46;;;;;;;1.55;0.35;;;3.70;99.90;;;1.91;81.02;101831.25;4893189;28;20035;-83
2024/03/17 06:19:12;;;;;;;0.55;0.17;;;3.70;99.90;;;1.91;80.32;101831.25;4911975;28;20057;-83
2024/03/17 06:21:39;;;;;;;3.03;0.28;;;3.70;99.90;;;1.94;81.21;101833.88;4945342;28;20520;-82
2024/03/17 06:24:13;;;;;;;1.33;0.20;;;3.70;99.90;;;1.97;81.25;101836.50;4930109;28;20164;-81
2024/03/17 06:26:39;;;;;;;4.57;0.60;;;3.70;99.90;;;1.96;81.35;101843.41;4905035;28;20037;-83
2024/03/17 06:29:05;;;;;;;2.42;0.40;;;3.70;99.90;;;1.98;81.32;101843.41;4912577;28;20132;-83
2024/03/17 06:31:38;;;;;;;2.72;0.70;;;3.70;99.90;;;2.07;81.56;101855.59;4902692;28;20046;-83
2024/03/17 06:34:04;;;;;;;2.22;0.43;;;3.80;99.90;;;2.05;81.60;101851.28;4900241;28;20069;-81
2024/03/17 06:36:33;;;;;;;3.85;0.43;;;3.80;99.90;;;2.08;81.16;101855.63;4894418;28;20142;-83
2024/03/17 06:38:59;;;;;;;8.73;0.65;;;3.80;99.90;;;2.08;81.17;101859.94;4921048;28;20046;-82
2024/03/17 06:41:24;;;;;;;3.38;0.75;;;3.80;99.90;;;2.12;81.24;101867.78;4930904;28;20036;-82
2024/03/17 06:43:55;;;;;;;5.32;0.60;;;3.90;99.90;;;2.14;81.53;101866.06;4889454;28;20513;-83
2024/03/17 06:46:20;;;;;;;0.88;0.40;;;3.90;99.90;;;2.14;81.90;101873.84;4948996;28;20091;-84
2024/03/17 06:48:46;;;;;;;7.68;0.60;;;3.90;99.90;;;2.18;81.48;101872.13;4916479;28;20042;-82
2024/03/17 06:51:14;;;;;;;1.10;0.30;;;5.30;99.90;;;2.13;81.81;101872.09;4924032;28;20044;-83
2024/03/17 06:53:47;;;;;;;1.58;0.43;;;3.90;99.90;;;2.14;82.13;101872.97;4888319;28;20038;-83
2024/03/17 06:56:13;;;;;;;2.35;0.50;;;3.90;99.90;;;2.22;82.73;101881.69;4885204;28;20907;-83
2024/03/17 06:58:39;;;;;;;1.95;0.45;;;3.80;99.90;;;1.99;82.67;101871.16;4924955;28;20036;-84
2024/03/17 07:01:05;;;;;;;3.10;0.38;;;3.80;99.90;;;1.91;84.17;101883.22;4920313;28;20835;-82
2024/03/17 07:03:50;;;;;;;;;;;;;;;;;;;;;
2024/03/17 07:06:19;;;;;;;0.90;0.37;;;3.70;99.90;;;1.98;85.06;101890.19;4881895;28;21529;-81
2024/03/17 07:08:45;;;;;;;3.45;0.60;;;3.70;99.90;;;2.01;85.03;101890.22;4898450;28;20129;-83
2024/03/17 07:11:10;;;;;;;2.33;0.47;;;3.80;99.90;;;2.02;85.38;101892.81;4917350;28;20046;-85
2024/03/17 07:13:38;;;;;;;2.20;0.40;;;3.80;99.90;;;2.05;85.31;101886.75;4897897;28;20204;-84
2024/03/17 07:16:15;;;;;;;2.33;0.40;;;3.80;99.90;;;2.13;85.55;101894.63;4916398;28;20176;-84
2024/03/17 07:18:43;;;;;;;2.88;0.30;;;3.80;99.90;;;2.13;85.04;101887.69;4921219;28;20066;-85
2024/03/17 07:21:17;;;;;;;5.97;0.90;;;3.90;99.90;;;2.23;85.69;101888.63;4917028;28;20043;-84
2024/03/17 07:23:43;;;;;;;2.53;0.60;;;3.90;99.90;;;2.30;85.64;101889.53;4873660;28;20083;-84
2024/03/17 07:26:19;;;;;;;;;;;;;;;;;;;;;
2024/03/17 07:28:45;;;;;;;2.63;0.50;;;4.00;99.90;;;2.41;84.64;101890.47;4912771;28;21778;-83
2024/03/17 07:31:11;;;;;;;1.35;0.30;;;;;;;2.40;84.67;101894.81;4900945;28;20045;-84
2024/03/17 07:33:37;;;;;;;1.13;0.20;;;4.10;99.90;;;2.45;83.95;101900.88;4885737;28;20230;-84
2024/03/17 07:36:05;;;;;;;2.20;0.30;;;4.10;99.90;;;2.38;83.01;101899.13;4927176;23;20050;-86
2024/03/17 07:38:52;;;;;;;0.28;0.28;;;4.10;99.90;;;2.28;82.67;101899.06;4875320;28;20030;-82
2024/03/17 07:41:19;;;;;;;3.33;0.40;;;4.10;99.90;;;2.26;82.74;101910.28;4907442;28;20046;-84
2024/03/17 07:43:45;;;;;;;5.13;0.50;;;4.10;99.90;;;2.31;83.67;101912.06;4905784;28;20031;-82
2024/03/17 07:46:18;;;;;;;0.10;0.00;;;4.10;99.90;;;2.28;84.62;101912.06;4892625;28;20047;-85
2024/03/17 07:48:45;;;;;;;1.00;0.40;;;4.00;99.90;;;2.26;84.82;101915.50;4885542;28;20557;-85
2024/03/17 07:51:21;;;;;;;3.10;0.50;;;4.00;99.90;;;2.25;85.27;101918.97;4876125;28;20193;-84
2024/03/17 07:53:53;;;;;;;;;;;4.00;99.90;;;2.20;84.34;101923.28;4878043;28;20040;-81
2024/03/17 07:56:26;;;;;;;1.27;0.40;;;4.00;99.90;;;2.10;84.90;101923.19;4912330;23;19981;-84
2024/03/17 07:58:55;;;;;;;2.90;0.63;;;3.90;99.90;;;2.01;86.06;101924.84;4911014;28;20117;-85
2024/03/17 08:01:21;;;;;;;3.13;0.60;;;3.80;99.90;;;2.09;87.35;101937.03;4924309;28;20102;-83
2024/03/17 08:03:56;;;;;;;0.77;0.25;;;3.90;99.90;;;2.09;88.04;101924.91;4894353;28;20050;-83
2024/03/17 08:06:25;;;;;;;3.15;0.40;;;3.80;99.90;;;2.11;87.84;101930.13;4890563;28;20150;-85
2024/03/17 08:08:51;;;;;;;2.28;0.60;;;3.90;99.90;;;2.15;87.63;101930.16;4901322;28;20043;-84
2024/03/17 08:11:26;;;;;;;3.35;0.30;;;;;;;2.15;86.87;101931.88;4891883;28;20402;-84
2024/03/17 08:13:55;;;;;;;1.10;0.38;;;3.90;99.90;;;2.19;86.79;101933.66;4910777;28;20054;-84
2024/03/17 08:16:29;;;;;;;4.60;0.30;;;4.00;99.90;;;2.21;86.79;101930.19;4923659;23;20051;-84
2024/03/17 08:18:56;;;;;;;0.55;0.20;;;4.00;99.90;;;2.34;86.47;101938.94;4899290;28;20039;-83
2024/03/17 08:21:22;;;;;;;2.05;0.50;;;4.00;99.90;;;2.49;86.71;101945.13;4922076;28;20432;-83
2024/03/17 08:23:48;;;;;;;1.42;0.30;;;4.20;99.90;;;2.55;86.32;101939.94;4908171;28;20110;-84
2024/03/17 08:26:22;;;;;;;1.70;0.30;;;4.20;99.90;;;2.63;86.66;101954.72;4904906;28;20032;-84
2024/03/17 08:28:48;;;;;;;2.08;0.50;;;4.30;99.90;;;2.61;85.76;101956.47;4896404;28;20050;-83
2024/03/17 08:31:15;;;;;;;1.92;0.50;;;4.30;99.90;;;2.60;85.23;101954.72;4898452;28;20411;-82
2024/03/17 08:34:01;;;;;;;2.60;0.40;;;;;;;2.64;84.87;101947.81;4868401;28;20062;-84
2024/03/17 08:36:28;;;;;;;2.78;0.43;;;4.30;99.90;;;2.54;84.29;101952.06;4906729;23;20060;-83
2024/03/17 08:38:55;;;;;;;4.30;0.40;;;4.30;99.90;;;2.57;84.05;101954.72;4886031;28;20033;-84
2024/03/17 08:41:21;;;;;;;1.60;0.30;;;4.30;99.90;;;2.56;84.61;101957.28;4855199;28;20055;-84
2024/03/17 08:43:47;;;;;;;3.58;0.85;;;4.30;99.90;;;2.49;84.05;101960.72;4846410;28;20526;-83
2024/03/17 08:46:13;;;;;;;1.73;0.28;;;4.20;99.90;;;2.43;83.52;101961.53;4879275;28;20027;-84
2024/03/17 08:48:47;;;;;;;0.40;0.10;;;4.20;99.90;;;2.42;83.34;101965.00;4866419;28;20031;-83
2024/03/17 08:51:13;;;;;;;1.30;0.30;;;4.20;99.90;;;2.47;83.27;101963.31;4888022;28;20529;-84
2024/03/17 08:53:46;;;;;;;2.30;0.45;;;4.20;99.90;;;2.55;82.39;101961.63;4855174;28;20040;-84
2024/03/17 08:56:15;;;;;;;0.90;0.35;;;4.30;99.90;;;2.53;82.01;101963.34;4931482;23;20050;-84
2024/03/17 08:58:40;;;;;;;1.27;0.40;;;4.30;99.90;;;2.61;81.47;101965.97;4926319;28;20050;-84
2024/03/17 09:01:08;;;;;;;2.42;0.40;;;4.40;99.90;;;2.73;80.70;101970.41;4918523;28;20042;-82
2024/03/17 09:03:43;;;;;;;3.42;0.50;;;4.40;99.90;;;2.86;81.02;101975.66;4933182;28;20042;-84
2024/03/17 09:06:20;;;;;;;1.08;0.30;;;4.50;99.90;;;2.92;80.80;101976.56;4933113;28;20045;-83
2024/03/17 09:08:49;;;;;;;0.90;0.30;;;4.60;99.90;;;3.07;81.08;101972.31;4914163;28;20041;-84
2024/03/17 09:11:24;;;;;;;2.70;0.30;;;4.80;99.90;;;3.44;80.45;101980.25;4965134;28;20527;-83
2024/03/17 09:13:50;;;;;;;0.88;0.35;;;4.90;99.90;;;3.44;79.69;101977.63;4966212;28;20165;-83
2024/03/17 09:16:18;;;;;;;2.28;0.30;;;5.00;99.90;;;3.37;77.57;101978.50;4941656;23;20034;-83
2024/03/17 09:18:44;;;;;;;0.52;0.20;;;5.00;99.90;;;3.27;77.02;101989.72;4945902;28;20054;-84
2024/03/17 09:21:20;;;;;;;0.10;0.10;;;4.90;99.90;;;3.01;76.79;101982.69;4933610;28;20799;-84
2024/03/17 09:23:46;;;;;;;0.83;0.23;;;4.80;99.90;;;3.01;77.55;101987.88;4934013;28;20038;-82
2024/03/17 09:26:22;;;;;;;0.82;0.30;;;;;;;3.08;77.71;101991.38;4917286;28;20566;-82
2024/03/17 09:28:48;;;;;;;0.73;0.13;;;4.70;99.90;;;3.07;77.13;101993.13;4939078;28;20053;-82
2024/03/17 09:31:14;;;;;;;2.17;0.20;;;4.80;99.90;;;3.04;77.15;101997.44;4926576;28;20034;-83
2024/03/17 09:33:40;;;;;;;0.20;0.20;;;4.70;99.90;;;2.91;79.23;101993.91;4943728;28;20047;-83
2024/03/17 09:36:15;;;;;;;1.58;0.40;;;5.10;99.90;;;2.72;81.41;101994.66;4887280;28;20121;-82
2024/03/17 09:38:43;;;;;;;0.77;0.43;;;4.50;99.90;;;2.69;82.75;102002.44;4915574;28;20039;-84
2024/03/17 09:41:24;;;;;;;1.02;0.32;;;4.50;99.90;;;2.71;83.24;101992.94;4945576;28;20030;-83
2024/03/17 09:43:58;;;;;;;1.85;0.25;;;4.50;99.90;;;2.79;83.65;101999.06;4901475;28;20030;-84
2024/03/17 09:46:34;;;;;;;4.57;0.43;;;4.50;99.90;;;2.83;83.23;102001.69;4930204;28;20509;-82
2024/03/17 09:49:02;;;;;;;1.60;0.52;;;4.60;99.90;;;2.94;83.51;102004.34;4918733;28;20067;-83
2024/03/17 09:51:39;;;;;;;1.80;0.70;;;4.60;99.90;;;3.07;83.38;102008.75;4910990;28;20568;-83
2024/03/17 09:54:19;;;;;;;0.50;0.25;;;4.70;99.90;;;3.21;82.74;102005.31;4921625;28;20177;-82
2024/03/17 09:56:46;;;;;;;1.45;0.22;;;4.80;99.90;;;3.19;80.95;102000.09;4956931;28;20090;-83
2024/03/17 09:59:12;;;;;;;0.80;0.30;;;4.80;99.90;;;3.18;78.84;102005.31;4927438;28;20062;-84
2024/03/17 10:01:38;;;;;;;1.05;0.30;;;4.80;99.90;;;3.19;78.65;102017.47;4914624;28;20537;-81
2024/03/17 10:04:04;;;;;;;1.08;0.50;;;4.80;99.90;;;3.16;78.09;102015.72;4901460;28;20486;-82
2024/03/17 10:06:50;;;;;;;1.25;0.30;;;4.90;99.90;;;3.26;77.96;102020.09;4898278;28;20038;-83
2024/03/17 10:09:33;;;;;;;1.42;0.28;;;4.90;99.90;;;3.28;78.38;102017.50;4928392;28;20061;-82
2024/03/17 10:12:04;;;;;;;0.50;0.25;;;4.90;99.90;;;3.22;78.33;102017.50;4942968;28;20109;-82
2024/03/17 10:14:39;;;;;;;1.05;0.20;;;4.90;99.90;;;3.21;78.09;102026.16;4961863;28;20094;-83
2024/03/17 10:17:06;;;;;;;2.53;0.40;;;4.80;99.90;;;3.21;78.13;102031.34;4926603;28;20099;-82
2024/03/17 10:19:42;;;;;;;;;;;;;;;;;;;;;
2024/03/17 10:22:24;;;;;;;0.63;0.20;;;4.90;99.90;;;3.38;77.94;102021.00;4906960;28;20045;-82
2024/03/17 10:25:02;;;;;;;1.90;0.30;;;5.00;99.90;;;3.40;77.51;102020.16;4922008;28;20044;-83
2024/03/17 10:27:32;;;;;;;0.55;0.15;;;5.10;99.90;;;3.52;76.99;102021.06;4961763;28;20075;-82
2024/03/17 10:30:26;;;;;;;2.90;0.35;;;5.20;99.90;;;3.59;77.10;102030.66;4940002;28;20038;-82
2024/03/17 10:33:32;;;;;;;1.08;0.25;;;5.30;99.90;;;3.79;77.39;102026.34;4932658;28;20054;-83
2024/03/17 10:36:00;;;;;;;0.70;0.30;;;5.30;99.90;;;3.69;77.29;102016.75;4878401;23;20113;-82
2024/03/17 10:38:28;;;;;;;0.52;0.20;;;5.30;99.90;;;3.63;76.72;102021.97;4880529;28;20098;-81
2024/03/17 10:41:00;;;;;;;1.85;0.35;;;;;;;3.64;76.04;102027.16;4912186;28;20060;-83
2024/03/17 10:43:29;;;;;;;1.00;0.20;;;5.30;99.90;;;3.63;75.32;102035.88;4939986;28;20042;-82
2024/03/17 10:46:08;;;;;;;0.63;0.30;;;5.30;99.90;;;3.77;74.26;102037.63;4915908;28;20572;-83
2024/03/17 10:48:36;;;;;;;4.80;0.10;;;;;;;3.80;73.83;102048.94;4897432;28;20031;-84
2024/03/17 10:51:25;;;;;;;0.65;0.28;;;5.50;99.90;;;3.84;73.58;102050.66;4926671;28;20038;-83
2024/03/17 10:53:56;;;;;;;1.33;0.20;;;5.50;99.90;;;3.79;72.72;102051.53;4907701;28;20043;-83